Time;durP1;ratioP1;P1;durP2;ratioP2;P2;SDS_P1;SDS_P2;PMS_P1;PMS_P2;Temp;Humidity;BMP_temperature;BMP_pressure;BME280_temperature;BME280_humidity;BME280_pressure;Samples;Min_cycle;Max_cycle;Signal;HPM_P1;HPM_P2
2022/06/17 00:01:20;;;;;;;4.43;2.97;;;18.00;99.90;;;;;;5011840;28;20447;-78
2022/06/17 00:03:48;;;;;;;6.23;3.23;;;18.00;99.90;;;;;;5027243;28;20796;-79
2022/06/17 00:06:14;;;;;;;3.83;3.00;;;18.00;99.90;;;;;;5011654;28;20427;-78
2022/06/17 00:08:44;;;;;;;6.00;3.50;;;18.00;99.90;;;;;;5027417;28;20412;-79
2022/06/17 00:11:15;;;;;;;4.27;2.63;;;17.90;99.90;;;;;;5030089;28;20467;-79
2022/06/17 00:13:41;;;;;;;3.57;2.90;;;17.90;99.90;;;;;;5030918;28;20418;-80
2022/06/17 00:16:15;;;;;;;5.90;3.40;;;17.80;99.90;;;;;;5030291;28;20815;-78
2022/06/17 00:18:42;;;;;;;4.53;3.43;;;17.70;99.90;;;;;;5030596;28;20673;-79
2022/06/17 00:21:35;;;;;;;4.90;3.67;;;17.70;99.90;;;;;;5030405;28;20812;-79
2022/06/17 00:24:01;;;;;;;4.30;3.47;;;17.60;99.90;;;;;;5014855;28;20419;-79
2022/06/17 00:26:27;;;;;;;6.47;3.33;;;17.60;99.90;;;;;;5014733;28;20412;-79
2022/06/17 00:28:53;;;;;;;5.10;3.97;;;17.60;99.90;;;;;;5014155;28;20424;-79
2022/06/17 00:31:19;;;;;;;5.30;3.70;;;17.50;99.90;;;;;;5034215;28;20554;-79
2022/06/17 00:33:45;;;;;;;4.80;4.30;;;17.50;99.90;;;;;;5027357;28;20602;-79
2022/06/17 00:36:17;;;;;;;4.97;3.83;;;17.50;99.90;;;;;;5039766;28;20420;-79
2022/06/17 00:38:44;;;;;;;5.90;3.97;;;17.40;99.90;;;;;;5031027;28;20207;-79
2022/06/17 00:41:21;;;;;;;5.60;4.07;;;17.40;99.90;;;;;;5014076;28;20440;-80
2022/06/17 00:43:47;;;;;;;5.07;4.30;;;17.30;99.90;;;;;;5041857;28;20919;-80
2022/06/17 00:46:28;;;;;;;6.10;4.33;;;17.30;99.90;;;;;;5024700;28;20502;-81
2022/06/17 00:49:06;;;;;;;5.90;4.20;;;17.30;99.90;;;;;;5025252;28;20606;-80
2022/06/17 00:51:38;;;;;;;5.43;3.97;;;17.20;99.90;;;;;;5025833;28;21045;-81
2022/06/17 00:54:14;;;;;;;5.50;4.33;;;17.10;99.90;;;;;;5040948;28;20427;-80
2022/06/17 00:56:40;;;;;;;5.63;3.73;;;17.10;99.90;;;;;;5040536;28;20488;-81
2022/06/17 00:59:09;;;;;;;8.20;4.60;;;17.20;99.90;;;;;;5024455;28;20730;-80
2022/06/17 01:01:46;;;;;;;5.33;3.60;;;17.20;99.90;;;;;;5040713;28;20278;-80
2022/06/17 01:04:16;;;;;;;5.60;4.00;;;17.10;99.90;;;;;;5040146;28;20431;-80
2022/06/17 01:06:46;;;;;;;5.20;3.90;;;16.90;99.90;;;;;;5023100;28;20456;-80
2022/06/17 01:12:06;;;;;;;6.97;3.53;;;16.90;99.90;;;;;;5023977;28;20470;-80
2022/06/17 01:14:32;;;;;;;5.10;3.50;;;16.90;99.90;;;;;;5024193;28;20416;-81
2022/06/17 01:16:58;;;;;;;7.83;4.50;;;17.00;99.90;;;;;;5023318;28;20407;-80
2022/06/17 01:19:36;;;;;;;6.33;4.87;;;16.90;99.90;;;;;;5023176;28;20436;-80
2022/06/17 01:22:18;;;;;;;5.63;3.80;;;16.80;99.90;;;;;;5021893;28;20819;-80
2022/06/17 01:24:45;;;;;;;6.20;3.97;;;16.90;99.90;;;;;;5038759;28;20487;-80
2022/06/17 01:27:11;;;;;;;6.03;4.50;;;16.90;99.90;;;;;;5021229;28;20869;-80
2022/06/17 01:29:36;;;;;;;4.00;3.47;;;16.80;99.90;;;;;;5037363;28;20451;-80
2022/06/17 01:32:02;;;;;;;7.57;3.60;;;16.90;99.90;;;;;;5022278;28;20680;-81
2022/06/17 01:34:28;;;;;;;4.93;3.50;;;16.90;99.90;;;;;;5022454;28;20915;-80
2022/06/17 01:36:54;;;;;;;5.83;4.10;;;16.90;99.90;;;;;;5022588;28;20443;-81
2022/06/17 01:39:20;;;;;;;4.83;3.53;;;16.90;99.90;;;;;;5022556;28;20178;-79
2022/06/17 01:41:47;;;;;;;4.83;3.47;;;16.90;99.90;;;;;;5021736;28;20443;-81
2022/06/17 01:44:23;;;;;;;5.90;3.97;;;16.90;99.90;;;;;;5021864;28;20923;-80
2022/06/17 01:46:52;;;;;;;5.63;3.90;;;16.90;99.90;;;;;;5035806;28;20426;-79
2022/06/17 01:49:22;;;;;;;4.60;3.60;;;16.90;99.90;;;;;;5021559;28;20485;-80
2022/06/17 01:51:57;;;;;;;5.97;4.30;;;16.90;99.90;;;;;;5020606;28;20471;-80
2022/06/17 01:54:32;;;;;;;6.53;4.17;;;16.80;99.90;;;;;;5019825;28;20838;-79
2022/06/17 01:57:01;;;;;;;5.20;4.13;;;16.70;99.90;;;;;;5035505;28;20427;-79
2022/06/17 01:59:32;;;;;;;4.50;3.53;;;16.70;99.90;;;;;;5035982;28;20451;-80
2022/06/17 02:02:01;;;;;;;5.50;3.70;;;16.60;99.90;;;;;;5019076;28;20456;-79
2022/06/17 02:04:41;;;;;;;4.73;3.70;;;16.60;99.90;;;;;;5020362;28;20420;-80
2022/06/17 02:07:34;;;;;;;4.80;3.50;;;16.70;99.90;;;;;;5019960;28;20400;-79
2022/06/17 02:10:00;;;;;;;5.23;3.83;;;16.70;99.90;;;;;;5020146;28;20513;-79
2022/06/17 02:12:27;;;;;;;5.43;3.17;;;16.70;99.90;;;;;;5020193;28;20459;-79
2022/06/17 02:14:54;;;;;;;4.57;4.00;;;16.70;99.90;;;;;;5035017;28;20424;-79
2022/06/17 02:17:27;;;;;;;6.97;4.30;;;16.70;99.90;;;;;;5033593;28;20542;-80
2022/06/17 02:19:53;;;;;;;6.10;3.87;;;16.70;99.90;;;;;;5019185;28;20440;-80
2022/06/17 02:22:24;;;;;;;5.30;4.00;;;16.70;99.90;;;;;;5033753;28;20463;-80
2022/06/17 02:24:56;;;;;;;5.57;4.00;;;16.60;99.90;;;;;;5016904;28;20451;-80
2022/06/17 02:27:22;;;;;;;4.47;3.87;;;16.60;99.90;;;;;;5033074;28;20420;-80
2022/06/17 02:29:49;;;;;;;4.37;3.57;;;16.60;99.90;;;;;;5032935;28;20782;-79
2022/06/17 02:32:16;;;;;;;8.63;3.47;;;16.50;99.90;;;;;;5015618;28;20610;-81
2022/06/17 02:35:01;;;;;;;5.30;3.87;;;16.50;99.90;;;;;;5033165;28;20427;-80
2022/06/17 02:37:28;;;;;;;5.10;3.77;;;16.50;99.90;;;;;;5016258;28;20511;-79
2022/06/17 02:39:58;;;;;;;6.17;3.90;;;16.50;99.90;;;;;;5032408;28;20511;-79
2022/06/17 02:42:26;;;;;;;5.70;3.40;;;16.50;99.90;;;;;;5017816;28;20482;-81
2022/06/17 02:44:59;;;;;;;5.30;3.50;;;16.50;99.90;;;;;;5032541;28;20424;-79
2022/06/17 02:47:25;;;;;;;5.93;3.80;;;16.40;99.90;;;;;;5017897;28;20420;-80
2022/06/17 02:49:52;;;;;;;5.10;3.90;;;16.40;99.90;;;;;;5018188;28;20416;-80
2022/06/17 02:52:34;;;;;;;4.00;3.40;;;16.40;99.90;;;;;;5017600;28;20467;-80
2022/06/17 02:55:03;;;;;;;4.90;3.27;;;16.30;99.90;;;;;;5015893;28;20420;-79
2022/06/17 02:57:30;;;;;;;5.40;3.90;;;16.30;99.90;;;;;;5017021;28;20412;-79
2022/06/17 03:00:19;;;;;;;7.47;3.77;;;16.20;99.90;;;;;;5031167;28;20428;-81
2022/06/17 03:02:49;;;;;;;5.43;3.43;;;16.10;99.90;;;;;;5031492;28;20502;-79
2022/06/17 03:05:28;;;;;;;5.70;3.80;;;16.10;99.90;;;;;;5015561;28;20424;-81
2022/06/17 03:07:56;;;;;;;4.60;3.50;;;16.10;99.90;;;;;;5031106;28;20811;-79
2022/06/17 03:10:33;;;;;;;5.47;4.07;;;16.10;99.90;;;;;;5017337;28;20416;-79
2022/06/17 03:13:03;;;;;;;9.70;4.27;;;16.10;99.90;;;;;;5031256;28;20459;-80
2022/06/17 03:15:28;;;;;;;4.60;3.30;;;16.00;99.90;;;;;;5029976;28;20428;-80
2022/06/17 03:17:54;;;;;;;7.30;3.50;;;15.90;99.90;;;;;;5013502;28;20930;-79
2022/06/17 03:20:40;;;;;;;6.80;3.93;;;16.00;99.90;;;;;;5030049;28;20193;-79
2022/06/17 03:23:16;;;;;;;6.37;4.43;;;16.00;99.90;;;;;;5029039;28;20181;-78
2022/06/17 03:26:03;;;;;;;4.90;3.83;;;16.00;99.90;;;;;;5011519;28;20428;-79
2022/06/17 03:28:34;;;;;;;5.73;4.00;;;16.00;99.90;;;;;;5012168;28;20466;-80
2022/06/17 03:31:15;;;;;;;5.10;3.80;;;16.00;99.90;;;;;;5013313;28;20468;-78
2022/06/17 03:33:47;;;;;;;6.50;4.07;;;16.00;99.90;;;;;;5013360;28;20443;-79
2022/06/17 03:36:21;;;;;;;6.33;4.03;;;15.90;99.90;;;;;;5028132;28;20427;-79
2022/06/17 03:38:52;;;;;;;6.03;3.80;;;15.90;99.90;;;;;;5013313;28;20419;-78
2022/06/17 03:41:35;;;;;;;6.73;4.07;;;15.80;99.90;;;;;;5028579;28;20959;-79
2022/06/17 03:44:14;;;;;;;6.13;4.07;;;15.90;99.90;;;;;;5029422;28;20419;-79
2022/06/17 03:46:48;;;;;;;7.00;4.13;;;15.90;99.90;;;;;;5016644;28;20415;-79
2022/06/17 03:49:18;;;;;;;6.20;3.90;;;15.90;99.90;;;;;;5032687;28;20935;-79
2022/06/17 03:51:45;;;;;;;7.20;3.70;;;15.90;99.90;;;;;;5015405;28;20526;-79
2022/06/17 03:54:15;;;;;;;7.73;4.57;;;15.90;99.90;;;;;;5034754;28;20838;-78
2022/06/17 03:56:45;;;;;;;5.57;4.30;;;15.90;99.90;;;;;;5023318;28;20448;-80
2022/06/17 03:59:18;;;;;;;5.13;4.20;;;15.90;99.90;;;;;;5040259;28;20499;-80
2022/06/17 04:01:52;;;;;;;5.40;4.13;;;16.00;99.90;;;;;;5039805;28;20873;-80
2022/06/17 04:04:32;;;;;;;6.70;4.43;;;16.10;99.90;;;;;;5039742;28;20426;-80
2022/06/17 04:06:58;;;;;;;6.27;4.50;;;16.10;99.90;;;;;;5038690;28;20427;-80
2022/06/17 04:09:30;;;;;;;6.33;5.03;;;16.20;99.90;;;;;;5023695;28;20423;-80
2022/06/17 04:12:06;;;;;;;6.80;5.03;;;16.30;99.90;;;;;;5022210;28;21117;-80
2022/06/17 04:14:46;;;;;;;5.40;4.30;;;16.40;99.90;;;;;;5038857;28;20510;-80
2022/06/17 04:17:26;;;;;;;5.27;4.50;;;16.40;99.90;;;;;;5022489;28;20439;-80
2022/06/17 04:20:17;;;;;;;12.57;5.00;;;16.50;99.90;;;;;;5038588;28;20429;-80
2022/06/17 04:22:46;;;;;;;6.80;4.87;;;16.60;99.90;;;;;;5023090;28;20451;-79
2022/06/17 04:25:18;;;;;;;8.73;4.90;;;16.70;99.90;;;;;;5038126;28;20415;-80
2022/06/17 04:27:57;;;;;;;8.97;5.90;;;16.70;99.90;;;;;;5037279;28;20451;-80
2022/06/17 04:30:37;;;;;;;6.80;4.60;;;16.80;99.90;;;;;;5037714;28;20459;-80
2022/06/17 04:33:21;;;;;;;6.77;5.33;;;16.80;99.90;;;;;;5017702;28;20424;-79
2022/06/17 04:35:49;;;;;;;6.77;4.80;;;16.90;99.90;;;;;;5013893;28;20461;-79
2022/06/17 04:38:14;;;;;;;7.20;5.30;;;17.00;99.90;;;;;;5014266;28;20416;-79
2022/06/17 04:40:47;;;;;;;8.07;5.33;;;17.10;99.90;;;;;;5030640;28;20490;-78
2022/06/17 04:43:36;;;;;;;7.03;5.27;;;17.20;99.90;;;;;;5014389;28;20545;-79
2022/06/17 04:46:09;;;;;;;5.97;5.07;;;17.30;99.90;;;;;;5030185;28;20436;-79
2022/06/17 04:48:36;;;;;;;7.87;5.37;;;17.40;99.90;;;;;;5015334;28;20403;-78
2022/06/17 04:51:03;;;;;;;12.17;5.80;;;17.40;99.90;;;;;;5015114;28;20831;-78
2022/06/17 04:53:30;;;;;;;6.83;5.40;;;17.50;99.90;;;;;;5015221;28;20415;-78
2022/06/17 04:55:56;;;;;;;8.10;5.57;;;17.60;99.90;;;;;;5014043;28;20418;-78
2022/06/17 04:58:24;;;;;;;10.00;5.67;;;17.60;99.90;;;;;;5029921;28;20435;-78
2022/06/17 05:00:54;;;;;;;9.00;5.33;;;17.70;99.90;;;;;;5014615;28;20447;-79
2022/06/17 05:03:30;;;;;;;9.37;5.17;;;17.80;99.90;;;;;;5137571;22;20504;-79
2022/06/17 05:05:56;;;;;;;8.67;4.90;;;18.00;99.90;;;;;;5045949;28;20640;-79
2022/06/17 05:08:34;;;;;;;8.97;5.17;;;18.10;99.90;;;;;;5045722;28;20452;-78
2022/06/17 05:11:20;;;;;;;9.90;4.70;;;18.20;99.90;;;;;;5044969;28;20470;-79
2022/06/17 05:14:00;;;;;;;5.87;4.47;;;18.30;99.90;;;;;;5045195;28;20433;-78
2022/06/17 05:16:26;;;;;;;7.00;5.03;;;18.50;99.90;;;;;;5044976;28;20446;-78
2022/06/17 05:18:52;;;;;;;8.80;5.17;;;18.60;99.90;;;;;;5044835;28;20418;-78
2022/06/17 05:21:23;;;;;;;7.53;5.13;;;18.70;99.90;;;;;;5044793;28;20214;-78
2022/06/17 05:23:52;;;;;;;6.07;4.47;;;18.70;99.90;;;;;;5043575;28;20921;-78
2022/06/17 05:26:17;;;;;;;5.60;4.70;;;18.80;99.90;;;;;;5043084;28;20513;-78
2022/06/17 05:28:43;;;;;;;6.60;4.67;;;18.90;99.90;;;;;;5042538;28;20508;-79
2022/06/17 05:31:13;;;;;;;5.40;4.07;;;18.90;99.90;;;;;;5043166;28;20261;-78
2022/06/17 05:33:40;;;;;;;7.90;4.67;;;19.10;99.90;;;;;;5042849;28;20187;-78
2022/06/17 05:36:06;;;;;;;7.80;4.63;;;19.20;99.90;;;;;;5042443;28;20473;-78
2022/06/17 05:38:32;;;;;;;5.53;4.30;;;19.30;99.90;;;;;;5045217;28;20414;-78
2022/06/17 05:40:58;;;;;;;8.50;5.27;;;19.30;99.90;;;;;;5046492;28;20791;-77
2022/06/17 05:43:23;;;;;;;7.47;4.93;;;19.40;99.90;;;;;;5044095;28;20188;-78
2022/06/17 05:45:49;;;;;;;8.70;4.83;;;19.60;99.90;;;;;;5043577;28;20956;-77
2022/06/17 05:48:15;;;;;;;6.47;4.80;;;19.70;99.90;;;;;;5044918;28;20283;-78
2022/06/17 05:50:41;;;;;;;6.40;4.17;;;19.80;99.90;;;;;;5046749;28;20215;-77
2022/06/17 05:53:10;;;;;;;6.83;4.60;;;19.90;99.90;;;;;;5042760;28;20204;-78
2022/06/17 05:55:37;;;;;;;5.63;4.00;;;20.00;99.90;;;;;;5043344;28;20928;-77
2022/06/17 05:58:04;;;;;;;5.30;4.03;;;20.20;99.90;;;;;;5043511;28;20422;-78
2022/06/17 06:00:31;;;;;;;10.23;4.97;;;20.30;99.90;;;;;;5041897;28;20927;-78
2022/06/17 06:03:00;;;;;;;7.60;5.13;;;20.50;99.90;;;;;;5042477;28;20925;-79
2022/06/17 06:05:28;;;;;;;8.83;4.43;;;20.60;99.90;;;;;;5045339;28;20429;-79
2022/06/17 06:07:54;;;;;;;7.93;4.47;;;20.70;99.90;;;;;;5047568;28;20449;-79
2022/06/17 06:10:20;;;;;;;5.40;4.60;;;20.70;99.90;;;;;;5048633;28;20894;-80
2022/06/17 06:13:05;;;;;;;6.77;4.23;;;20.80;99.90;;;;;;5046038;28;20242;-78
2022/06/17 06:15:30;;;;;;;5.40;4.00;;;20.80;99.90;;;;;;5047131;28;20418;-77
2022/06/17 06:17:56;;;;;;;6.03;3.70;;;20.90;99.90;;;;;;5064595;28;20441;-77
2022/06/17 06:20:22;;;;;;;5.50;3.93;;;21.00;99.90;;;;;;5045198;28;20201;-82
2022/06/17 06:22:49;;;;;;;7.23;4.30;;;20.90;99.90;;;;;;5044280;28;20422;-78
2022/06/17 06:25:16;;;;;;;6.27;4.10;;;21.00;99.90;;;;;;5040739;28;20422;-81
2022/06/17 06:27:43;;;;;;;5.50;3.67;;;21.10;99.90;;;;;;5039821;28;20820;-82
2022/06/17 06:30:27;;;;;;;6.23;3.90;;;21.20;99.90;;;;;;5037162;28;20426;-81
2022/06/17 06:32:56;;;;;;;6.07;4.10;;;21.30;99.90;;;;;;5039582;28;20467;-81
2022/06/17 06:35:25;;;;;;;6.63;4.20;;;21.40;99.90;;;;;;5056637;28;20426;-82
2022/06/17 06:37:51;;;;;;;5.67;3.30;;;21.40;99.90;;;;;;5040292;28;20497;-82
2022/06/17 06:40:18;;;;;;;7.50;3.80;;;21.50;99.90;;;;;;5040650;28;20414;-81
2022/06/17 06:42:47;;;;;;;4.20;3.10;;;21.50;99.90;;;;;;5041579;28;20192;-81
2022/06/17 06:45:18;;;;;;;6.43;3.70;;;21.60;99.90;;;;;;5042452;28;20484;-81
2022/06/17 06:47:46;;;;;;;5.50;3.30;;;21.70;99.90;;;;;;5041199;28;20441;-81
2022/06/17 06:50:18;;;;;;;7.77;3.73;;;21.60;99.90;;;;;;5038916;28;20437;-81
2022/06/17 06:52:45;;;;;;;7.27;4.07;;;21.70;99.90;;;;;;5038089;28;20457;-82
2022/06/17 06:55:12;;;;;;;4.50;3.27;;;21.80;99.90;;;;;;5054572;28;20438;-82
2022/06/17 06:57:46;;;;;;;5.83;3.67;;;21.90;99.90;;;;;;5050409;28;20456;-81
2022/06/17 07:00:16;;;;;;;3.77;3.07;;;22.00;99.90;;;;;;5049322;28;20426;-82
2022/06/17 07:02:42;;;;;;;4.90;3.37;;;22.20;99.90;;;;;;5049140;28;20460;-80
2022/06/17 07:05:08;;;;;;;5.20;2.90;;;22.40;99.90;;;;;;5049798;28;20844;-78
2022/06/17 07:07:34;;;;;;;5.73;2.90;;;22.50;99.90;;;;;;5046920;28;20230;-79
2022/06/17 07:09:59;;;;;;;4.13;3.03;;;22.70;99.90;;;;;;5047743;28;20449;-78
2022/06/17 07:12:25;;;;;;;3.73;2.80;;;22.80;99.90;;;;;;5045707;28;20253;-79
2022/06/17 07:14:51;;;;;;;3.70;2.77;;;22.90;99.90;;;;;;5044778;28;20180;-79
2022/06/17 07:17:17;;;;;;;4.90;3.00;;;23.00;99.90;;;;;;5045793;28;20191;-79
2022/06/17 07:19:42;;;;;;;6.77;3.07;;;23.20;99.90;;;;;;5043618;28;20176;-80
2022/06/17 07:22:08;;;;;;;4.80;3.00;;;23.40;99.90;;;;;;5037770;28;20184;-79
2022/06/17 07:24:35;;;;;;;4.40;2.73;;;23.60;99.90;;;;;;5043652;28;20187;-78
2022/06/17 07:27:01;;;;;;;5.00;2.60;;;23.80;99.90;;;;;;5043324;28;20218;-78
2022/06/17 07:29:27;;;;;;;3.97;2.70;;;24.00;99.90;;;;;;5042450;28;20426;-80
2022/06/17 07:31:56;;;;;;;3.83;2.70;;;24.20;99.90;;;;;;5042217;28;20663;-81
2022/06/17 07:34:22;;;;;;;4.40;2.80;;;24.30;99.90;;;;;;5043512;28;20191;-80
2022/06/17 07:42:16;;;;;;;3.60;3.00;;;24.60;99.90;;;;;;5059530;28;20421;-78
2022/06/17 07:44:42;;;;;;;4.30;3.10;;;24.80;99.90;;;;;;5057342;28;20418;-80
2022/06/17 07:47:14;;;;;;;7.80;2.60;;;24.80;99.90;;;;;;5056094;28;20195;-79
2022/06/17 07:49:40;;;;;;;8.00;3.13;;;24.80;99.90;;;;;;5057618;28;20187;-79
2022/06/17 07:52:06;;;;;;;3.67;2.43;;;24.80;99.90;;;;;;5056249;28;20469;-79
2022/06/17 07:54:31;;;;;;;4.80;2.73;;;24.70;99.90;;;;;;5058112;28;20195;-80
2022/06/17 07:56:57;;;;;;;3.53;2.60;;;24.70;99.90;;;;;;5057881;28;20204;-79
2022/06/17 07:59:23;;;;;;;4.00;2.43;;;24.80;99.90;;;;;;5058811;28;20214;-80
2022/06/17 08:01:49;;;;;;;4.40;2.50;;;24.90;99.90;;;;;;5057950;28;20186;-80
2022/06/17 08:04:14;;;;;;;6.00;2.97;;;25.00;99.90;;;;;;5057597;28;20227;-79
2022/06/17 08:06:49;;;;;;;4.00;2.60;;;25.30;99.90;;;;;;5056087;28;20365;-80
2022/06/17 08:09:16;;;;;;;7.13;2.90;;;25.50;99.90;;;;;;5057059;28;20198;-78
2022/06/17 08:11:42;;;;;;;6.13;3.17;;;25.60;99.90;;;;;;5058711;28;20469;-79
2022/06/17 08:14:08;;;;;;;4.23;3.07;;;25.90;99.90;;;;;;5058461;28;20429;-80
2022/06/17 08:16:35;;;;;;;7.53;2.80;;;26.30;99.90;;;;;;5035742;28;20219;-79
2022/06/17 08:19:04;;;;;;;7.63;3.00;;;26.70;99.90;;;;;;5020899;28;20181;-80
2022/06/17 08:21:31;;;;;;;3.60;2.53;;;27.00;99.20;;;;;;5029271;28;20441;-79
2022/06/17 08:23:57;;;;;;;3.20;2.37;;;27.70;97.50;;;;;;5046312;28;20426;-80
2022/06/17 08:26:23;;;;;;;3.10;2.30;;;28.40;97.90;;;;;;5053011;28;20485;-80
2022/06/17 08:28:49;;;;;;;5.93;2.33;;;29.00;95.10;;;;;;5052900;28;20793;-79
2022/06/17 08:31:15;;;;;;;4.47;2.60;;;30.30;90.80;;;;;;5053515;28;20219;-80
2022/06/17 08:33:40;;;;;;;3.87;2.50;;;30.40;90.60;;;;;;5055831;28;20426;-80
2022/06/17 08:36:10;;;;;;;4.83;2.77;;;31.30;84.80;;;;;;5056379;28;20203;-80
2022/06/17 08:38:41;;;;;;;4.43;2.70;;;31.60;76.10;;;;;;5056537;28;20184;-80
2022/06/17 08:41:28;;;;;;;4.93;2.93;;;31.70;72.50;;;;;;5056395;28;20426;-79
2022/06/17 08:44:19;;;;;;;3.80;2.57;;;32.10;70.20;;;;;;5056228;28;20512;-79
2022/06/17 08:46:57;;;;;;;3.90;2.60;;;32.70;61.50;;;;;;5061394;28;20477;-78
2022/06/17 08:49:28;;;;;;;3.60;2.53;;;33.10;58.50;;;;;;5064648;28;20445;-80
2022/06/17 08:52:16;;;;;;;4.40;2.73;;;33.10;56.30;;;;;;5061160;28;20465;-81
2022/06/17 08:54:52;;;;;;;3.67;2.43;;;33.40;55.20;;;;;;5062130;28;20457;-81
2022/06/17 08:57:53;;;;;;;4.40;2.97;;;33.30;53.70;;;;;;5060156;28;20968;-81
2022/06/17 09:01:02;;;;;;;5.23;3.07;;;33.40;54.00;;;;;;5061047;28;20449;-80
2022/06/17 09:03:55;;;;;;;3.70;2.87;;;34.10;53.80;;;;;;5008409;28;20451;-80
2022/06/17 09:06:33;;;;;;;3.53;2.40;;;34.00;52.80;;;;;;5058685;28;20434;-82
2022/06/17 09:09:26;;;;;;;3.43;2.60;;;34.00;52.30;;;;;;5061150;28;20417;-81
2022/06/17 09:11:56;;;;;;;5.73;3.07;;;34.40;51.80;;;;;;5059052;28;20465;-81
2022/06/17 09:14:43;;;;;;;3.77;2.70;;;34.70;51.60;;;;;;5059832;28;20410;-81
2022/06/17 09:17:15;;;;;;;3.63;2.40;;;35.30;49.10;;;;;;5059313;28;20438;-80
2022/06/17 09:19:46;;;;;;;3.40;2.37;;;35.30;47.50;;;;;;5059070;28;20433;-81
2022/06/17 09:22:28;;;;;;;5.70;2.23;;;36.00;47.50;;;;;;5060191;28;20921;-81
2022/06/17 09:24:58;;;;;;;3.20;2.20;;;36.00;44.50;;;;;;5060920;28;20472;-79
2022/06/17 09:27:28;;;;;;;3.27;2.33;;;35.30;43.80;;;;;;5059689;28;20442;-80
2022/06/17 09:29:54;;;;;;;3.80;2.50;;;35.10;45.50;;;;;;5060363;28;20444;-80
2022/06/17 09:32:22;;;;;;;3.00;2.23;;;35.70;44.00;;;;;;5058857;28;20607;-80
2022/06/17 09:35:04;;;;;;;4.10;2.03;;;36.50;43.10;;;;;;5060479;28;20180;-80
2022/06/17 09:37:33;;;;;;;3.17;1.87;;;36.90;45.00;;;;;;5060030;28;20537;-80
2022/06/17 09:40:06;;;;;;;6.80;2.30;;;37.60;41.50;;;;;;5063050;28;20425;-81
2022/06/17 09:42:58;;;;;;;3.20;1.90;;;38.30;40.50;;;;;;5067154;28;20422;-81
2022/06/17 09:45:44;;;;;;;5.30;2.00;;;38.80;37.80;;;;;;5056828;28;20414;-80
2022/06/17 09:48:26;;;;;;;3.93;2.53;;;39.00;39.40;;;;;;5066756;28;20422;-80
2022/06/17 09:50:58;;;;;;;4.00;2.03;;;39.60;36.30;;;;;;5064691;28;20414;-81
2022/06/17 09:53:37;;;;;;;6.20;2.30;;;39.90;36.40;;;;;;5064244;28;20417;-81
2022/06/17 09:56:38;;;;;;;3.10;1.80;;;41.10;35.80;;;;;;5063146;28;20437;-82
2022/06/17 09:59:15;;;;;;;6.20;2.43;;;41.30;35.50;;;;;;5062832;28;20441;-82
2022/06/17 10:01:42;;;;;;;4.33;1.80;;;41.80;34.00;;;;;;5061782;28;20421;-81
2022/06/17 10:04:10;;;;;;;4.30;2.10;;;41.90;34.00;;;;;;5062485;28;20495;-81
2022/06/17 10:06:45;;;;;;;4.20;1.73;;;41.30;31.80;;;;;;5061392;28;20429;-82
2022/06/17 10:09:20;;;;;;;3.23;2.23;;;41.50;31.30;;;;;;5060876;28;20439;-80
2022/06/17 10:12:20;;;;;;;3.50;1.80;;;42.00;31.40;;;;;;5059925;28;20433;-80
2022/06/17 10:15:08;;;;;;;3.03;2.00;;;41.60;30.00;;;;;;5061106;28;20978;-81
2022/06/17 10:20:40;;;;;;;3.27;2.23;;;41.40;30.60;;;;;;5052343;28;20457;-79
2022/06/17 10:23:32;;;;;;;3.20;2.33;;;41.90;30.00;;;;;;5043194;28;20425;-81
2022/06/17 10:26:20;;;;;;;3.97;1.87;;;41.40;30.10;;;;;;5041154;28;20520;-82
2022/06/17 10:29:11;;;;;;;3.00;1.83;;;41.40;31.00;;;;;;5041173;28;20932;-80
2022/06/17 10:31:43;;;;;;;2.77;1.70;;;41.70;30.00;;;;;;5041229;28;20568;-80
2022/06/17 10:34:45;;;;;;;2.73;1.80;;;42.00;31.40;;;;;;5041575;28;20785;-81
2022/06/17 10:37:12;;;;;;;4.03;1.80;;;41.20;30.00;;;;;;5039802;28;20448;-80
2022/06/17 10:39:39;;;;;;;4.20;1.80;;;39.90;29.70;;;;;;5040089;28;20418;-80
2022/06/17 10:42:09;;;;;;;3.67;1.80;;;39.30;31.00;;;;;;5039568;28;20497;-79
2022/06/17 10:44:36;;;;;;;3.07;1.90;;;39.10;30.60;;;;;;5039299;28;20418;-80
2022/06/17 10:47:11;;;;;;;4.63;1.90;;;38.80;31.80;;;;;;5039663;28;20438;-80
2022/06/17 10:50:10;;;;;;;3.57;2.30;;;38.10;32.10;;;;;;5039730;28;20490;-80
2022/06/17 10:52:45;;;;;;;3.63;2.00;;;37.50;34.30;;;;;;5039388;28;20476;-81
2022/06/17 10:55:38;;;;;;;3.03;1.90;;;37.30;33.00;;;;;;5038057;28;20425;-80
2022/06/17 10:58:16;;;;;;;2.60;1.73;;;37.10;31.70;;;;;;5027829;28;20422;-79
2022/06/17 11:01:03;;;;;;;2.63;2.00;;;36.80;32.90;;;;;;5038474;28;20484;-80
2022/06/17 11:03:38;;;;;;;4.30;2.10;;;36.10;32.50;;;;;;5038051;28;20439;-80
2022/06/17 11:06:20;;;;;;;2.60;1.83;;;36.00;34.30;;;;;;5037964;28;20985;-79
2022/06/17 11:08:49;;;;;;;3.93;2.00;;;35.70;34.60;;;;;;5037028;28;20457;-81
2022/06/17 11:14:27;;;;;;;5.43;2.07;;;35.00;34.80;;;;;;5033988;28;20410;-79
2022/06/17 11:16:53;;;;;;;3.23;2.13;;;35.20;35.60;;;;;;5035302;28;20431;-81
2022/06/17 11:19:23;;;;;;;2.80;2.10;;;35.00;33.50;;;;;;5035462;28;20450;-79
2022/06/17 11:21:58;;;;;;;2.67;1.60;;;34.70;35.60;;;;;;5034977;28;20310;-81
2022/06/17 11:24:32;;;;;;;4.10;2.20;;;34.80;34.80;;;;;;5035428;28;20441;-82
2022/06/17 11:26:59;;;;;;;2.80;1.80;;;34.60;35.00;;;;;;5034956;28;20422;-82
2022/06/17 11:29:45;;;;;;;3.83;2.03;;;34.20;35.50;;;;;;5034580;28;20485;-79
2022/06/17 11:32:32;;;;;;;3.20;1.80;;;34.00;36.60;;;;;;5034737;28;20441;-79
2022/06/17 11:35:18;;;;;;;2.60;1.80;;;33.60;37.40;;;;;;5033251;28;21075;-82
2022/06/17 11:37:47;;;;;;;3.73;2.10;;;33.50;36.50;;;;;;5031634;28;20455;-82
2022/06/17 11:40:17;;;;;;;4.20;2.10;;;33.20;37.00;;;;;;5031649;28;20407;-80
2022/06/17 11:42:59;;;;;;;2.77;1.80;;;33.00;37.50;;;;;;5031516;28;20470;-79
2022/06/17 11:45:41;;;;;;;5.50;2.10;;;32.90;37.60;;;;;;5031672;28;20411;-81
2022/06/17 11:48:19;;;;;;;2.90;1.87;;;32.90;38.70;;;;;;5031738;28;20422;-80
2022/06/17 11:51:25;;;;;;;3.97;1.63;;;33.00;37.90;;;;;;5031610;28;20435;-80
2022/06/17 11:53:56;;;;;;;2.90;2.10;;;33.20;40.10;;;;;;5020493;28;20434;-80
2022/06/17 11:56:41;;;;;;;3.17;2.10;;;33.20;38.30;;;;;;5031197;28;20835;-79
2022/06/17 11:59:21;;;;;;;2.80;1.80;;;33.10;39.50;;;;;;5030065;28;20925;-80
2022/06/17 12:01:56;;;;;;;5.67;2.57;;;33.10;39.60;;;;;;5031217;28;20473;-80
2022/06/17 12:04:42;;;;;;;2.87;2.20;;;33.10;38.80;;;;;;5031402;28;20407;-80
2022/06/17 12:07:33;;;;;;;3.30;2.03;;;33.00;40.30;;;;;;5033940;28;20464;-79
2022/06/17 12:10:05;;;;;;;2.50;1.77;;;32.70;38.90;;;;;;5033674;28;20506;-79
2022/06/17 12:12:32;;;;;;;2.30;1.60;;;32.50;38.70;;;;;;5035151;28;20442;-79
2022/06/17 12:15:00;;;;;;;2.87;1.90;;;32.30;39.90;;;;;;5035183;28;20422;-79
2022/06/17 12:17:26;;;;;;;7.37;2.10;;;32.20;39.10;;;;;;5034684;28;20419;-79
2022/06/17 12:19:53;;;;;;;8.50;2.07;;;32.00;39.00;;;;;;5034030;28;20427;-78
2022/06/17 12:22:34;;;;;;;2.67;1.80;;;31.90;38.40;;;;;;5034610;28;20262;-78
2022/06/17 12:25:05;;;;;;;3.87;1.77;;;31.80;38.80;;;;;;5033800;28;20423;-80
2022/06/17 12:27:40;;;;;;;3.33;1.77;;;32.00;39.50;;;;;;5034824;28;20411;-79
2022/06/17 12:30:28;;;;;;;2.97;1.53;;;32.20;40.00;;;;;;5034790;28;20415;-79
2022/06/17 12:33:06;;;;;;;2.40;1.70;;;32.30;37.40;;;;;;5034989;28;20831;-79
2022/06/17 12:35:42;;;;;;;3.97;1.90;;;32.20;37.90;;;;;;5033078;28;20429;-79
2022/06/17 12:38:16;;;;;;;4.07;2.20;;;32.20;38.40;;;;;;5035015;28;20490;-80
2022/06/17 12:40:53;;;;;;;3.40;2.23;;;32.10;38.70;;;;;;5034505;28;20438;-79
2022/06/17 12:43:32;;;;;;;2.80;2.00;;;32.10;39.00;;;;;;5028371;28;20457;-80
2022/06/17 12:46:08;;;;;;;5.27;1.90;;;32.10;40.30;;;;;;5033071;28;20502;-79
2022/06/17 12:48:39;;;;;;;3.30;2.17;;;32.10;38.90;;;;;;5034096;28;20419;-79
2022/06/17 12:54:29;;;;;;;2.70;1.83;;;32.00;39.00;;;;;;5034978;28;20401;-79
2022/06/17 12:57:04;;;;;;;4.40;1.90;;;32.30;41.30;;;;;;5031253;28;20426;-79
2022/06/17 12:59:48;;;;;;;3.27;1.90;;;32.30;40.90;;;;;;5014333;28;20415;-79
2022/06/17 13:02:19;;;;;;;3.30;2.10;;;32.30;40.00;;;;;;5014535;28;20930;-79
2022/06/17 13:04:50;;;;;;;2.57;1.60;;;32.40;41.90;;;;;;5014637;28;20451;-78
2022/06/17 13:07:28;;;;;;;5.23;1.90;;;32.50;40.80;;;;;;5014386;28;20919;-79
2022/06/17 13:13:07;;;;;;;2.73;1.60;;;32.40;40.10;;;;;;5014537;28;20842;-79
2022/06/17 13:15:40;;;;;;;6.30;2.80;;;32.50;39.90;;;;;;5014396;28;20423;-77
2022/06/17 13:18:16;;;;;;;2.90;2.00;;;32.40;39.70;;;;;;5013931;28;20414;-80
2022/06/17 13:21:00;;;;;;;3.00;1.67;;;32.60;38.80;;;;;;5014220;28;20941;-80
2022/06/17 13:23:37;;;;;;;3.20;2.20;;;33.10;40.80;;;;;;5014319;28;20499;-80
2022/06/17 13:26:16;;;;;;;2.60;1.73;;;34.00;38.60;;;;;;5024029;28;20537;-79
2022/06/17 13:28:56;;;;;;;2.77;1.80;;;34.80;38.40;;;;;;5034146;28;20407;-80
2022/06/17 13:31:37;;;;;;;3.80;2.37;;;35.40;38.10;;;;;;5033809;28;20992;-81
2022/06/17 13:34:10;;;;;;;3.93;2.60;;;35.30;36.70;;;;;;5034049;28;20480;-81
2022/06/17 13:37:01;;;;;;;3.70;2.40;;;35.30;37.60;;;;;;5033360;28;20457;-81